Flugwetter Haslital by BIRDWING.ch
alle Angaben ohne Gewähr
code & design by arbyte.ch


Planplatten 2245m
17.06.19  04:3013|16  O7.5°C50%
17.06.19  04:1510|14  O8.0°C44%
17.06.19  04:0012|16  O7.7°C48%
17.06.19  03:309|13  O7.8°C50%
17.06.19  03:0011|14  O7.6°C57%
➜ Windstation Planplatten

Meiringen 589m
17.06.19  04:201|5  S10.3°C92%
17.06.19  04:103|7  OSO12.3°C82%
17.06.19  04:002|4  SO11.4°C87%
17.06.19  03:404|8  O11.7°C86%
17.06.19  03:203|5  OSO12.1°C85%

Brienz 567m
17.06.19  04:200|0  N
17.06.19  04:101|3  SSO
17.06.19  04:003|4  ONO
17.06.19  03:403|4  ONO
17.06.19  03:204|6  OSO

Gütsch ob Andermatt 2283m
17.06.19  04:2026|34  ONO6.0°C58%
17.06.19  04:1027|35  ONO5.6°C64%
17.06.19  04:0027|32  ONO5.8°C67%
17.06.19  03:4030|39  ONO5.4°C72%
17.06.19  03:2031|35  ONO4.4°C84%

Höhematte Metropole 566m
17.06.19  04:345|7  OSO12.9°C81%
17.06.19  04:285|5  OSO12.8°C82%
17.06.19  04:243|6  OSO12.7°C81%
17.06.19  04:085|8  OSO12.9°C79%
17.06.19  03:587|8  OSO13.0°C79%

Niederhorn 1950m
17.06.19  04:3416|17  ONO9.0°C67%
17.06.19  04:2816|17  NO9.0°C67%
17.06.19  04:2410|17  ONO8.7°C70%
17.06.19  04:0816|17  O8.7°C73%
17.06.19  03:589|11  O8.3°C77%

. . . . . . . . .

Bänzlauistock 2528m
17.06.19  03:3013|15  SO
17.06.19  03:009|15  SO
17.06.19  02:303|6  SO

Sidelhorn 2733m
17.06.19  03:301|10  SO
17.06.19  03:003|7  OSO
17.06.19  02:303|6  N

Brienzer Rothorn 2348m
17.06.19  03:3014|18  ONO
17.06.19  03:0011|14  O
17.06.19  02:309|12  O

Altdorf 438m
17.06.19  04:202|4  SSO12.1°C89%
17.06.19  04:100|1  N12.2°C90%
17.06.19  04:001|2  SSW11.0°C96%
17.06.19  03:404|5  S11.4°C92%
17.06.19  03:203|5  SSO12.5°C89%

Chasseral 1599m
17.06.19  04:2044|54  O8.0°C97%
17.06.19  04:1043|52  O7.9°C97%
17.06.19  04:0041|52  O8.1°C95%
17.06.19  03:4043|52  O8.3°C86%
17.06.19  03:2039|46  O8.6°C80%

Eggishorn 2893m
17.06.19  04:2013|18  O5.2°C25%
17.06.19  04:1011|17  O4.8°C29%
17.06.19  04:0010|18  ONO5.4°C27%
17.06.19  03:408|13  ONO5.0°C33%
17.06.19  03:207|11  O5.0°C31%

Giswil 471m
17.06.19  04:205|7  W10.0°C99%
17.06.19  04:102|4  WSW9.8°C99%
17.06.19  04:002|3  WSW9.6°C99%
17.06.19  03:402|3  WNW9.5°C99%
17.06.19  03:201|2  W10.0°C99%

Glarus 517m
17.06.19  04:201|3  W11.3°C92%
17.06.19  04:103|4  WNW11.6°C91%
17.06.19  04:002|5  N11.4°C92%
17.06.19  03:403|4  SSO11.0°C92%
17.06.19  03:203|6  WNW12.8°C87%

Gornergrat 3129m
17.06.19  04:2014|20  SO3.2°C36%
17.06.19  04:1017|25  OSO3.1°C38%
17.06.19  04:0016|25  O3.0°C39%
17.06.19  03:4015|25  ONO3.7°C31%
17.06.19  03:2018|32  O3.8°C28%

Grimsel Hospiz 1980m
17.06.19  04:2018|28  SSW7.1°C51%
17.06.19  04:1020|30  SSW6.7°C51%
17.06.19  04:0014|25  SW6.5°C52%
17.06.19  03:4015|25  SW6.7°C54%
17.06.19  03:2014|22  WSW6.6°C55%

Jungfraujoch 3580m
17.06.19  04:2022|27  SSO-0.6°C30%
17.06.19  04:1021|24  SSO-0.6°C31%
17.06.19  04:0024|27  SSO-0.5°C30%
17.06.19  03:4019|22  SSO-0.5°C29%
17.06.19  03:2021|23  SSO-0.3°C28%

Luzern 454m
17.06.19  04:202|5  W12.2°C92%
17.06.19  04:104|8  W12.6°C90%
17.06.19  04:003|7  W12.8°C89%
17.06.19  03:402|5  W12.9°C90%
17.06.19  03:201|3  WNW12.9°C90%

Le Moléson 1974m
17.06.19  04:2015|17  NO8.0°C73%
17.06.19  04:1017|19  ONO7.7°C76%
17.06.19  04:0018|19  ONO7.7°C76%
17.06.19  03:4017|22  NO7.8°C77%
17.06.19  03:2016|17  NNO7.7°C79%

Napf 1404m
17.06.19  04:2026|37  ONO9.9°C92%
17.06.19  04:1027|42  ONO9.9°C90%
17.06.19  04:0026|36  ONO10.2°C88%
17.06.19  03:4026|38  ONO9.9°C91%
17.06.19  03:2026|36  ONO10.3°C89%

Säntis 2502m
17.06.19  04:204|7  S5.4°C53%
17.06.19  04:1010|18  S5.4°C48%
17.06.19  04:0015|21  SO4.3°C65%
17.06.19  03:4017|23  O3.1°C81%
17.06.19  03:2013|22  O3.3°C82%

Thun 570m
17.06.19  04:201|2  WSW10.1°C97%
17.06.19  04:101|2  W10.0°C97%
17.06.19  04:001|3  WNW10.0°C97%
17.06.19  03:405|6  S9.8°C97%
17.06.19  03:204|5  WNW10.7°C96%

Titlis 3040m
17.06.19  04:2026|32  SO3.5°C33%
17.06.19  04:1025|29  SO3.7°C31%
17.06.19  04:0023|26  SO3.8°C26%
17.06.19  03:4017|20  SO3.5°C32%
17.06.19  03:2013|14  SO3.7°C28%


QNH Druckwerte vom 17.06.2019 04:20
Interlaken1020.6 hPa
Zürich (SMA)1020.9 hPa
Acquarossa / Comprovasco1019.8 hPa
Locarno/Monti1017.7 hPa
Genève-Cointrin1019.7 hPa

Δ Comprovasco - Interlaken in hPa
17.06.19  04:201019.8 - 1020.6 =-0.8
17.06.19  04:101019.7 - 1020.8 =-1.1
17.06.19  03:501019.6 - 1020.6 =-1.0
17.06.19  03:201019.7 - 1020.9 =-1.2
17.06.19  02:201019.7 - 1020.9 =-1.2

Δ Locarno - Zürich in hPa
17.06.19  04:201017.7 - 1020.9 =-3.2
17.06.19  04:101017.6 - 1021.0 =-3.4
17.06.19  03:501017.6 - 1021.1 =-3.5
17.06.19  03:201017.5 - 1021.4 =-3.9
17.06.19  02:201017.1 - 1021.4 =-4.3

Δ Genf - Bodensee in hPa
17.06.19  04:201019.7 - 1020.9 =-1.2
17.06.19  04:101019.6 - 1020.8 =-1.2
17.06.19  03:501019.7 - 1021.1 =-1.4
17.06.19  03:201019.6 - 1021.5 =-1.9
17.06.19  02:201019.9 - 1021.5 =-1.6

Temp Meiringen - Plami in °C/100m
17.06.19  04:2010.3 - 7.5 = 2.80.17
17.06.19  03:5012.4 - 7.4 = 5.00.30
17.06.19  03:2012.1 - 7.6 = 4.50.27

Temp Lehn - Niederhorn in °C/100m
17.06.19  04:3412.7 - 9.0 = 3.70.27
17.06.19  04:1812.9 - 9.2 = 3.70.27
17.06.19  03:5813.6 - 8.3 = 5.30.38

Temp Luzern - Pilatus in °C/100m
17.06.19  04:2012.2 - 7.1 = 5.10.31
17.06.19  03:5012.9 - 7.0 = 5.90.36
17.06.19  03:2012.9 - 7.2 = 5.70.35